Terminal Aerodrome Forecast
Issued by NWS Sioux Falls, SD

Home | Current Version | Previous Version | Text Only | Print | Product List | Glossary On
Versions: 1 2 3 4 5 6 7 8 9 10 11 12 13 14 15 16 17 18 19 20 21 22 23 24
000
FTUS43 KFSD 150520
TAFFSD
TAF
KFSD 150520Z 1506/1606 36009KT 2SM -RA BR OVC006
     FM151000 02015G26KT 2SM RA BR OVC004
      TEMPO 1516/1518 2SM FZRAPL OVC008
     FM151800 35020G30KT 2SM -SN OVC010
     FM160300 34020G28KT 6SM BR BKN015=

USA.gov is the U.S. government's official web portal to all federal, state and local government web resources and services.